メインページ
METAR-TAF:

METAR-TAF

空港 :

リスト・フェレンツ国際空港

ブダペスト, ハンガリー

緯度: 47-26N, 経度: 019-16E, 海抜: 151m

現時点の気象観測

当レポートは6分前の07:30(UTC)に作成
東/北東の風 7kt、北/北西から東/南東の間で変化する
気温 27°C
湿度 54%
気圧 1020 hPa
視程10km以上
1,500メートル以下は雲なし、積乱雲なし

METAR: LHBP 190730Z 06007KT 330V120 CAVOK 27/17 Q1020 NOSIG

時間: 09:36 (07:36 UTC)

予報

当レポートは2時間21分前の05:15(UTC)に作成
予報は19日の 06時(UTC)から 20日の 06時(UTC)まで有効
北/北西の風 5kt
視程10km以上
1,500メートル以下は雲なし、積乱雲なし
19日の 06時(UTC)から 19日の 08時(UTC)まで徐々に
東/北東の風 7kt
19日の 18時(UTC)から 19日の 20時(UTC)まで徐々に
変向風 3kt

TAF: LHBP 190515Z 1906/2006 34005KT CAVOK BECMG 1906/1908 07007KT BECMG 1918/1920 VRB03KT

4,000以上の空港の気象観測と天気予報(METAR報とTAF報)

利用可能な観測所は地図上に黄色い丸と赤い丸で示す。

丸の上にカーソルを重ねると観測所名を参照できる。

次にクリックすると気象観測と天気予報を参照できる。

マップの切り替え:黒色「×」印の緑ボタンをクリックして拡大、「-」印の緑ボタンをクリックして縮小、緑色の三角印をクリックして隣りの地図に切り替え


METAR-TAF: